Terminal Aerodrome Forecast
Issued by NWS

Home | Current Version | Previous Version | Text Only | Print | Product List | Glossary On
Versions: 1 2 3 4 5 6 7 8 9 10 11 12 13 14 15 16
000
FTUS46 KSEW 290500
TAFCLM
TAF
KCLM 290536Z 2906/3006 28006KT P6SM SCT025
      TEMPO 2906/2910 BKN025
     FM291000 27006KT P6SM OVC020
     FM291700 29007KT P6SM VCSH OVC020
     FM292100 33007KT P6SM VCSH BKN025 OVC040=

USA.gov is the U.S. government's official web portal to all federal, state and local government web resources and services.